Kezdőlap
METAR-TAF:

METAR-TAF

Repülőterek :

Rundu, Namíbia

földrajzi szélesség: 17-57-20S, földrajzi hosszúság: 019-43-25E, magasság: 1106 m

METAR: hiányzik

Idő: 07:23 (06:23 UTC)

Előrejelzés

A jelentés 1 órával és 23 perccel ezelõtt készült, 05:00 UTC
Az előrejelzés 16-én 06 óra UTC és 16-én 15 óra UTC között érvényes
Keleti szél 5 kt
Látótávolság 10 km, vagy több
felhőtlen 1500 m magasságban, és nincs gomolyfelhõ

TAF: FYRU 160500Z 1606/1615 10005KT CAVOK

Meteorológiai megfigyelések és előrejelzések több, mint 4000 repülőtéren (METAR és TAF jelentéseket).

A térképen piros és sárga pontok jelzik az elérhető meteorológiai állomásokat.

Mozgassa az egeret a pont fölött, hogy megjelenjen az állomás neve.

Azután kattintson az időjárási megfigyelések és előrejelzések megtekintéséhez.

A térkép megváltoztatása: kattintson a fekete keresztel jelölt zöld gombra ráközelítéshez, a vonallal jelölt zöld gombra távolításhoz, vagy a zöld nyilakra a szomszédos térképek eléréséhez.


METAR-TAF: